createdAt,value
2023-02-18T00:00:05.368Z,8.17
2023-02-18T00:02:32.698Z,8.20
2023-02-18T00:04:59.567Z,8.20
2023-02-18T00:07:26.526Z,8.20
2023-02-18T00:09:53.185Z,8.22
2023-02-18T00:12:21.503Z,8.16
2023-02-18T00:14:48.575Z,8.25
2023-02-18T00:17:15.676Z,8.28
2023-02-18T00:19:42.693Z,8.31
2023-02-18T00:22:09.692Z,8.31
2023-02-18T00:24:36.394Z,8.32
2023-02-18T00:27:03.405Z,8.23
2023-02-18T00:29:32.405Z,8.34
2023-02-18T00:31:59.211Z,8.18
2023-02-18T00:34:26.123Z,8.23
2023-02-18T00:36:52.938Z,8.36
2023-02-18T00:39:26.412Z,8.33
2023-02-18T00:41:53.110Z,8.35
2023-02-18T00:44:20.118Z,8.01
2023-02-18T00:46:48.319Z,8.37
2023-02-18T00:49:16.319Z,8.29
2023-02-18T00:51:43.439Z,8.37
2023-02-18T00:54:10.639Z,8.06
2023-02-18T00:56:37.390Z,8.22
2023-02-18T00:59:04.389Z,8.25
2023-02-18T01:01:31.151Z,8.34
2023-02-18T01:03:59.593Z,8.35
2023-02-18T01:06:26.439Z,8.38
2023-02-18T01:08:53.170Z,8.42
2023-02-18T01:11:21.840Z,8.46
2023-02-18T01:13:48.842Z,8.48
2023-02-18T01:16:15.825Z,8.52
2023-02-18T01:18:42.625Z,8.53
2023-02-18T01:21:11.020Z,8.59
2023-02-18T01:23:39.322Z,8.59
2023-02-18T01:26:07.091Z,8.49
2023-02-18T01:28:34.229Z,8.50
2023-02-18T01:31:05.348Z,8.64
2023-02-18T01:33:32.093Z,7.64
2023-02-18T01:35:58.794Z,8.67
2023-02-18T01:38:26.937Z,8.50
2023-02-18T01:40:53.717Z,8.69
2023-02-18T01:43:21.645Z,8.62
2023-02-18T01:45:58.927Z,8.69
2023-02-18T01:48:30.293Z,8.74
2023-02-18T01:50:59.590Z,8.65
2023-02-18T01:53:35.945Z,8.72
2023-02-18T01:56:08.942Z,8.12
2023-02-18T01:58:36.681Z,8.78
2023-02-18T02:01:04.256Z,8.69
2023-02-18T02:03:31.406Z,8.70
2023-02-18T02:05:58.154Z,8.81
2023-02-18T02:08:25.130Z,8.81
2023-02-18T02:11:07.780Z,8.07
2023-02-18T02:13:52.906Z,8.08
2023-02-18T02:16:25.840Z,8.70
2023-02-18T02:19:04.215Z,8.76
2023-02-18T02:21:58.229Z,8.74
2023-02-18T02:24:56.709Z,8.70
2023-02-18T02:27:29.222Z,8.70
2023-02-18T02:30:41.841Z,8.71
2023-02-18T02:33:35.238Z,8.72
2023-02-18T02:36:12.733Z,8.73
2023-02-18T02:38:54.358Z,8.75
2023-02-18T02:41:33.664Z,8.76
2023-02-18T02:44:12.043Z,8.80
2023-02-18T02:46:41.234Z,8.68
2023-02-18T02:49:20.010Z,8.87
2023-02-18T02:51:56.737Z,8.88
2023-02-18T02:54:29.311Z,8.90
2023-02-18T02:57:08.765Z,8.80
2023-02-18T02:59:39.737Z,8.96
2023-02-18T03:02:24.417Z,8.91
2023-02-18T03:05:00.658Z,9.00
2023-02-18T03:07:57.060Z,9.01
2023-02-18T03:10:46.562Z,8.97
2023-02-18T03:13:25.975Z,9.00
2023-02-18T03:15:56.641Z,9.01
2023-02-18T03:18:31.263Z,8.62
2023-02-18T03:21:04.815Z,8.94
2023-02-18T03:23:37.497Z,9.05
2023-02-18T03:26:10.077Z,9.08
2023-02-18T03:28:38.904Z,9.06
2023-02-18T03:31:10.796Z,9.08
2023-02-18T03:33:40.637Z,9.10
2023-02-18T03:36:09.393Z,9.06
2023-02-18T03:38:40.631Z,9.00
2023-02-18T03:41:09.042Z,9.11
2023-02-18T03:43:35.762Z,9.15
2023-02-18T03:46:03.450Z,9.08
2023-02-18T03:48:30.261Z,9.18
2023-02-18T03:50:57.063Z,9.17
2023-02-18T03:53:24.044Z,9.19
2023-02-18T03:55:50.730Z,9.14
2023-02-18T03:58:19.082Z,9.24
2023-02-18T04:00:45.929Z,9.24
2023-02-18T04:03:12.664Z,8.17
2023-02-18T04:05:39.403Z,9.22
2023-02-18T04:08:06.197Z,8.87
2023-02-18T04:10:33.059Z,8.97
2023-02-18T04:12:59.958Z,9.00
2023-02-18T04:15:28.239Z,9.31
2023-02-18T04:17:55.101Z,9.20
2023-02-18T04:20:22.272Z,8.43
2023-02-18T04:22:49.650Z,9.29
2023-02-18T04:25:18.620Z,8.88
2023-02-18T04:27:45.454Z,9.00
2023-02-18T04:30:13.128Z,9.19
2023-02-18T04:32:43.230Z,8.40
2023-02-18T04:35:10.653Z,8.90
2023-02-18T04:37:38.003Z,9.34
2023-02-18T04:40:05.831Z,9.35
2023-02-18T04:42:32.592Z,9.35
2023-02-18T04:44:59.623Z,9.35
2023-02-18T04:47:27.102Z,9.00
2023-02-18T04:49:55.265Z,8.39
2023-02-18T04:52:24.534Z,9.00
2023-02-18T04:54:51.388Z,8.57
2023-02-18T04:57:18.379Z,9.34
2023-02-18T04:59:48.402Z,9.29
2023-02-18T05:02:15.464Z,9.36
2023-02-18T05:04:42.772Z,9.26
2023-02-18T05:07:10.921Z,9.36
2023-02-18T05:09:37.723Z,9.34
2023-02-18T05:12:04.746Z,9.32
2023-02-18T05:14:31.505Z,9.33
2023-02-18T05:16:58.222Z,9.33
2023-02-18T05:19:25.023Z,9.35
2023-02-18T05:21:51.811Z,9.35
2023-02-18T05:24:20.054Z,9.35
2023-02-18T05:26:46.816Z,8.63
2023-02-18T05:29:13.567Z,9.24
2023-02-18T05:31:40.318Z,9.35
2023-02-18T05:34:07.343Z,9.32
2023-02-18T05:36:34.608Z,9.23
2023-02-18T05:39:01.299Z,9.32
2023-02-18T05:41:29.424Z,9.30
2023-02-18T05:43:56.213Z,9.33
2023-02-18T05:46:24.640Z,9.35
2023-02-18T05:48:51.365Z,9.28
2023-02-18T05:51:18.517Z,9.33
2023-02-18T05:53:45.477Z,9.32
2023-02-18T05:56:12.180Z,9.26
2023-02-18T05:58:40.354Z,9.35
2023-02-18T06:01:07.065Z,9.38
2023-02-18T06:03:33.747Z,9.33
2023-02-18T06:06:00.544Z,9.42
2023-02-18T06:08:27.702Z,9.41
2023-02-18T06:10:54.399Z,9.46
2023-02-18T06:13:21.089Z,9.25
2023-02-18T06:15:51.012Z,9.53
2023-02-18T06:18:18.554Z,9.50
2023-02-18T06:20:47.171Z,9.63
2023-02-18T06:23:14.419Z,9.66
2023-02-18T06:25:41.535Z,9.72
2023-02-18T06:28:08.486Z,9.69
2023-02-18T06:30:36.437Z,8.93
2023-02-18T06:33:04.606Z,9.83
2023-02-18T06:35:31.752Z,9.86
2023-02-18T06:37:58.721Z,9.90
2023-02-18T06:40:25.511Z,9.90
2023-02-18T06:42:52.397Z,9.97
2023-02-18T06:45:19.378Z,9.35
2023-02-18T06:47:46.071Z,9.78
2023-02-18T06:50:14.594Z,10.00
2023-02-18T06:52:41.342Z,10.04
2023-02-18T06:55:09.144Z,10.04
2023-02-18T06:57:36.253Z,10.09
2023-02-18T07:00:04.211Z,10.10
2023-02-18T07:02:30.916Z,10.04
2023-02-18T07:04:57.636Z,10.15
2023-02-18T07:07:37.611Z,10.14
2023-02-18T07:10:13.099Z,10.14
2023-02-18T07:12:55.617Z,9.41
2023-02-18T07:15:29.053Z,9.30
2023-02-18T07:18:05.245Z,9.92
2023-02-18T07:20:36.834Z,9.05
2023-02-18T07:23:16.049Z,10.19
2023-02-18T07:26:06.138Z,10.13
2023-02-18T07:28:37.404Z,9.93
2023-02-18T07:31:08.580Z,9.68
2023-02-18T07:33:47.584Z,10.17
2023-02-18T07:36:14.760Z,9.90
2023-02-18T07:38:55.704Z,10.20
2023-02-18T07:41:46.736Z,9.10
2023-02-18T07:44:42.062Z,10.19
2023-02-18T07:47:27.842Z,10.18
2023-02-18T07:49:57.924Z,10.19
2023-02-18T07:55:52.497Z,8.99
2023-02-18T07:58:36.288Z,9.06
2023-02-18T08:01:09.206Z,10.09
2023-02-18T08:03:41.877Z,9.71
2023-02-18T08:06:52.446Z,8.94
2023-02-18T08:22:22.414Z,9.29
2023-02-18T08:25:18.088Z,9.82
2023-02-18T08:27:57.993Z,9.53
2023-02-18T08:30:31.693Z,9.92
2023-02-18T08:33:06.643Z,9.91
2023-02-18T08:35:44.967Z,8.91
2023-02-18T08:38:28.457Z,9.87
2023-02-18T08:41:27.984Z,9.10
2023-02-18T08:43:58.058Z,9.72
2023-02-18T08:46:33.498Z,8.67
2023-02-18T08:49:15.502Z,8.80
2023-02-18T08:51:43.198Z,9.78
2023-02-18T08:54:24.852Z,9.07
2023-02-18T08:56:55.279Z,8.55
2023-02-18T08:59:22.326Z,9.68
2023-02-18T09:01:49.343Z,8.58
2023-02-18T10:21:01.041Z,9.48
